El Paso, TX

3:27 PM MDT on May 06, 2015 (GMT -0600)
El Paso International | | Change Station
CLOSE
Current Station
Airport
Location: El Paso,
Elevation: 3917 ft
Nearby Weather Stations

Elev 3917 ft 31.81 °N, 106.38 °W | Updated 36 minutes ago

Partly Cloudy
Partly Cloudy
81 °F
Feels Like 81 °F
N
12
Wind Variable Wind from South

Today
High -- | Low -- °F
--% Chance of Precip.
Yesterday
High -- | Low -- °F
Precip. -- in
6:15 AM 7:49 PM
Waning Gibbous, 92% visible
Pressure 29.65 in
Visibility 10.0 miles
Clouds Few 10000 ft
Few 15000 ft
Dew Point 29 °F
Humidity 15%
Rainfall 0.00 in
Snow Depth Not available.
UV 10 out of 12
Pollen 6.90 out of 12
Air Quality Not available.
Flu Activity Sporadic
METAR KELP 062051Z COR 18010KT 10SM FEW100 FEW150 27/M02 A2985 RMK AO2 SLP040 T02721017 56025

More Conditions Fewer Conditions

Pressure 29.65 in
Visibility 10.0 miles
Clouds Few 10000 ft
Few 15000 ft
Dew Point 29 °F
Humidity 15%
Rainfall 0.00 in
Snow Depth Not available.
UV 10 out of 12
Pollen 6.90 out of 12
Air Quality Not available.
Flu Activity Sporadic
METAR KELP 062051Z COR 18010KT 10SM FEW100 FEW150 27/M02 A2985 RMK AO2 SLP040 T02721017 56025

More Conditions Fewer Conditions

10-Day Weather Forecast

Almanac

Astronomy

May. 06, 2015 Rise Set
Actual Time
Civil Twilight
Nautical Twilight
Astronomical Twilight
Moon
Length of Visible Light
Length of Day
Tomorrow will be .
, % of the Moon is Illuminated

Today's Extremes

State Highs State Lows

Community

WunderPhotos

Upload Photos

1,819,021 photos uploaded!

WunderBlogs® & News

Nearby

Air Quality

  Air Quality AQ Index Pollutant
Not available.

Snow Depth

Station Depth Elevation

Earthquake Activity

City Distance Mag. Time & Date
Minimum magnitude displayed is 2.5.

Coastal Water Temperatures

Place Temperature

Stations

Nearby Weather Stations

Station Location Temp. Windchill Dew Point Humidity Wind Precip. Elev Updated Type